createdAt,value
2022-08-30T00:00:23.534Z,14.25
2022-08-30T00:02:37.229Z,14.27
2022-08-30T00:04:49.216Z,14.27
2022-08-30T00:07:03.229Z,14.25
2022-08-30T00:09:14.363Z,14.25
2022-08-30T00:11:26.433Z,14.24
2022-08-30T00:13:38.524Z,14.25
2022-08-30T00:15:51.672Z,14.25
2022-08-30T00:18:05.170Z,14.27
2022-08-30T00:20:17.249Z,14.27
2022-08-30T00:22:30.840Z,14.27
2022-08-30T00:24:44.424Z,14.25
2022-08-30T00:26:57.524Z,14.25
2022-08-30T00:29:09.584Z,14.21
2022-08-30T00:31:21.689Z,14.19
2022-08-30T00:33:33.738Z,14.17
2022-08-30T00:35:45.850Z,14.12
2022-08-30T00:37:59.431Z,14.12
2022-08-30T00:40:13.614Z,14.12
2022-08-30T00:42:25.104Z,14.10
2022-08-30T00:44:37.187Z,14.12
2022-08-30T00:46:49.267Z,14.09
2022-08-30T00:49:01.381Z,14.06
2022-08-30T00:51:14.944Z,13.96
2022-08-30T00:53:27.031Z,13.96
2022-08-30T00:55:39.142Z,13.96
2022-08-30T00:57:52.705Z,13.94
2022-08-30T01:00:04.819Z,13.94
2022-08-30T01:02:16.916Z,13.92
2022-08-30T01:04:28.954Z,13.91
2022-08-30T01:06:41.026Z,13.94
2022-08-30T01:08:53.111Z,13.94
2022-08-30T01:11:05.278Z,13.95
2022-08-30T01:13:18.837Z,13.96
2022-08-30T01:15:30.926Z,13.98
2022-08-30T01:17:42.999Z,13.98
2022-08-30T01:19:56.597Z,14.01
2022-08-30T01:22:10.214Z,13.99
2022-08-30T01:24:22.271Z,14.01
2022-08-30T01:26:35.868Z,13.98
2022-08-30T01:28:51.450Z,14.02
2022-08-30T01:31:03.549Z,13.99
2022-08-30T01:33:15.840Z,13.98
2022-08-30T01:35:27.698Z,13.99
2022-08-30T01:37:39.778Z,13.96
2022-08-30T01:39:51.849Z,13.95
2022-08-30T01:42:04.915Z,13.92
2022-08-30T01:44:19.100Z,13.88
2022-08-30T01:46:32.652Z,13.84
2022-08-30T01:48:53.009Z,13.83
2022-08-30T01:50:58.343Z,13.84
2022-08-30T01:53:11.917Z,13.81
2022-08-30T01:55:24.031Z,13.77
2022-08-30T01:57:37.579Z,13.76
2022-08-30T01:59:49.662Z,13.69
2022-08-30T02:02:01.743Z,13.67
2022-08-30T02:04:13.853Z,13.65
2022-08-30T02:06:25.966Z,13.59
2022-08-30T02:08:38.020Z,13.54
2022-08-30T02:10:50.102Z,13.56
2022-08-30T02:13:04.617Z,13.58
2022-08-30T02:15:16.710Z,13.55
2022-08-30T02:17:29.388Z,13.55
2022-08-30T02:19:41.467Z,13.59
2022-08-30T02:21:53.545Z,13.59
2022-08-30T02:24:05.645Z,13.59
2022-08-30T02:26:17.728Z,13.58
2022-08-30T02:28:30.836Z,13.55
2022-08-30T02:30:44.455Z,13.54
2022-08-30T02:32:56.482Z,13.49
2022-08-30T02:35:08.556Z,13.46
2022-08-30T02:37:22.153Z,13.43
2022-08-30T02:39:34.240Z,13.40
2022-08-30T02:41:47.290Z,13.38
2022-08-30T02:43:59.370Z,13.37
2022-08-30T02:46:11.528Z,13.37
2022-08-30T02:48:23.544Z,13.33
2022-08-30T02:50:37.143Z,13.29
2022-08-30T02:52:50.689Z,13.25
2022-08-30T02:55:02.832Z,13.22
2022-08-30T02:57:20.321Z,13.20
2022-08-30T02:59:29.486Z,13.20
2022-08-30T03:01:43.202Z,13.21
2022-08-30T03:03:55.270Z,13.18
2022-08-30T03:06:08.271Z,13.15
2022-08-30T03:08:20.347Z,13.09
2022-08-30T03:10:34.887Z,13.06
2022-08-30T03:12:46.080Z,13.03
2022-08-30T03:14:58.418Z,13.03
2022-08-30T03:17:15.388Z,13.03
2022-08-30T03:19:23.258Z,13.04
2022-08-30T03:21:36.847Z,13.04
2022-08-30T03:23:48.951Z,13.07
2022-08-30T03:26:02.037Z,13.09
2022-08-30T03:28:17.607Z,13.09
2022-08-30T03:30:29.725Z,13.11
2022-08-30T03:32:44.231Z,13.11
2022-08-30T03:34:56.940Z,13.11
2022-08-30T03:37:08.991Z,13.12
2022-08-30T03:39:24.604Z,13.11
2022-08-30T03:41:36.675Z,13.14
2022-08-30T03:43:52.237Z,13.12
2022-08-30T03:46:04.528Z,13.12
2022-08-30T03:48:17.964Z,13.11
2022-08-30T03:50:33.538Z,13.09
2022-08-30T03:52:48.120Z,13.07
2022-08-30T03:55:00.204Z,13.07
2022-08-30T03:57:13.408Z,13.07
2022-08-30T03:59:25.361Z,13.06
2022-08-30T04:01:37.452Z,13.07
2022-08-30T04:03:49.529Z,13.03
2022-08-30T04:06:01.605Z,13.06
2022-08-30T04:08:13.713Z,13.06
2022-08-30T04:10:27.270Z,13.04
2022-08-30T04:12:40.343Z,13.03
2022-08-30T04:14:52.431Z,12.99
2022-08-30T04:17:06.002Z,12.99
2022-08-30T04:19:19.608Z,12.96
2022-08-30T04:21:31.676Z,12.95
2022-08-30T04:23:43.757Z,12.93
2022-08-30T04:25:55.847Z,12.89
2022-08-30T04:28:07.934Z,12.89
2022-08-30T04:30:21.553Z,12.92
2022-08-30T04:32:33.593Z,12.92
2022-08-30T04:34:45.966Z,12.92
2022-08-30T04:37:00.548Z,12.93
2022-08-30T04:39:14.120Z,12.93
2022-08-30T04:41:26.230Z,12.93
2022-08-30T04:43:38.295Z,12.95
2022-08-30T04:45:51.923Z,12.96
2022-08-30T04:48:04.955Z,12.97
2022-08-30T04:50:17.049Z,13.00
2022-08-30T04:52:30.144Z,12.99
2022-08-30T04:54:42.202Z,12.99
2022-08-30T04:56:54.311Z,12.99
2022-08-30T04:59:06.406Z,12.97
2022-08-30T05:01:19.823Z,13.00
2022-08-30T05:03:30.591Z,13.02
2022-08-30T05:05:44.147Z,13.03
2022-08-30T05:07:56.235Z,13.06
2022-08-30T05:10:11.534Z,13.09
2022-08-30T05:12:21.370Z,13.12
2022-08-30T05:14:39.469Z,13.17
2022-08-30T05:16:57.697Z,13.24
2022-08-30T05:19:18.142Z,13.32
2022-08-30T05:21:31.718Z,13.37
2022-08-30T05:23:45.302Z,13.36
2022-08-30T05:26:00.923Z,13.38
2022-08-30T05:28:25.965Z,13.44
2022-08-30T05:30:37.573Z,13.51
2022-08-30T05:32:57.642Z,13.55
2022-08-30T05:35:11.232Z,13.63
2022-08-30T05:37:29.342Z,13.76
2022-08-30T05:39:50.755Z,13.81
2022-08-30T05:42:00.983Z,13.89
2022-08-30T05:44:21.913Z,13.84
2022-08-30T05:48:48.267Z,13.99
2022-08-30T05:51:06.327Z,14.06
2022-08-30T05:53:24.924Z,14.10
2022-08-30T05:55:36.499Z,14.10
2022-08-30T05:57:50.094Z,14.07
2022-08-30T06:00:03.682Z,14.12
2022-08-30T06:02:19.272Z,14.17
2022-08-30T06:04:37.335Z,14.29
2022-08-30T06:06:55.415Z,14.42
2022-08-30T06:09:08.002Z,14.53
2022-08-30T06:11:22.106Z,14.54
2022-08-30T06:13:35.686Z,14.61
2022-08-30T06:15:49.293Z,14.71
2022-08-30T06:18:04.842Z,14.87
2022-08-30T06:20:20.427Z,15.01
2022-08-30T06:22:32.565Z,15.13
2022-08-30T06:23:32.486Z,15.15
2022-08-30T06:25:46.083Z,15.28
2022-08-30T06:27:58.184Z,15.35
2022-08-30T06:30:10.233Z,15.41
2022-08-30T06:32:25.827Z,15.42
2022-08-30T06:34:39.413Z,15.49
2022-08-30T06:36:55.004Z,15.56
2022-08-30T06:39:07.107Z,15.56
2022-08-30T06:41:20.667Z,15.52
2022-08-30T06:43:38.751Z,15.64
2022-08-30T06:45:56.843Z,15.79
2022-08-30T06:48:10.425Z,15.93
2022-08-30T06:50:25.089Z,15.93
2022-08-30T06:52:43.083Z,15.96
2022-08-30T06:54:55.261Z,16.09
2022-08-30T06:57:07.249Z,16.34
2022-08-30T06:59:20.832Z,16.68
2022-08-30T07:01:34.438Z,16.88
2022-08-30T07:03:46.505Z,16.90
2022-08-30T07:05:58.587Z,17.18
2022-08-30T07:08:12.154Z,17.32
2022-08-30T07:10:30.236Z,17.41
2022-08-30T07:12:43.852Z,17.54
2022-08-30T07:14:55.903Z,17.79
2022-08-30T07:17:08.011Z,18.07
2022-08-30T07:19:22.575Z,18.37
2022-08-30T07:21:41.599Z,18.47
2022-08-30T07:23:56.251Z,18.61
2022-08-30T07:26:11.837Z,18.67
2022-08-30T07:28:27.422Z,18.67
2022-08-30T07:30:43.017Z,18.61
2022-08-30T07:32:55.122Z,18.57
2022-08-30T07:35:07.215Z,18.59
2022-08-30T07:37:19.290Z,18.68
2022-08-30T07:39:31.838Z,18.74
2022-08-30T07:41:44.448Z,18.80
2022-08-30T07:43:59.037Z,18.79
2022-08-30T07:46:17.175Z,18.94
2022-08-30T07:48:30.726Z,19.17
2022-08-30T07:50:42.788Z,19.17
2022-08-30T07:52:59.361Z,18.91
2022-08-30T07:55:17.449Z,18.77
2022-08-30T07:57:29.619Z,18.72
2022-08-30T07:59:43.949Z,18.67
2022-08-30T08:01:55.309Z,18.58
2022-08-30T08:04:10.775Z,18.25
2022-08-30T08:06:24.360Z,18.04
2022-08-30T08:08:42.469Z,17.95
2022-08-30T08:10:58.023Z,18.04
2022-08-30T08:13:10.106Z,18.12
2022-08-30T08:15:22.177Z,18.13
2022-08-30T08:17:37.760Z,18.31
2022-08-30T08:19:49.859Z,18.46
2022-08-30T08:22:19.968Z,18.61
2022-08-30T08:23:06.398Z,18.65
2022-08-30T08:25:20.003Z,18.74
2022-08-30T08:27:32.077Z,18.83
2022-08-30T08:29:50.139Z,18.91
2022-08-30T08:32:06.747Z,19.02
2022-08-30T08:34:18.825Z,18.82
2022-08-30T08:36:30.928Z,18.82
2022-08-30T08:38:46.309Z,18.74
2022-08-30T08:40:57.565Z,18.97
2022-08-30T08:43:09.651Z,19.01
2022-08-30T08:45:21.714Z,19.21
2022-08-30T08:47:34.369Z,19.47
2022-08-30T08:49:45.885Z,19.70
2022-08-30T08:52:03.960Z,19.86
2022-08-30T08:54:19.550Z,19.86
2022-08-30T08:56:35.127Z,19.84
2022-08-30T08:58:50.751Z,19.75
2022-08-30T09:01:08.861Z,19.72
2022-08-30T09:03:24.395Z,19.68
2022-08-30T09:05:37.975Z,19.86
2022-08-30T09:07:50.067Z,19.83
2022-08-30T09:10:03.112Z,19.83
2022-08-30T09:12:14.522Z,20.06
2022-08-30T09:14:30.171Z,20.08
2022-08-30T09:16:39.670Z,20.12
2022-08-30T09:18:55.238Z,20.16
2022-08-30T09:21:08.198Z,20.38
2022-08-30T09:23:22.902Z,20.49
2022-08-30T09:25:36.714Z,20.34
2022-08-30T09:27:48.600Z,20.13
2022-08-30T09:30:00.684Z,20.12
2022-08-30T09:32:25.130Z,20.27
2022-08-30T09:34:30.879Z,20.31
2022-08-30T09:36:42.966Z,20.35
2022-08-30T09:38:55.037Z,20.54
2022-08-30T09:41:07.134Z,20.76
2022-08-30T09:43:19.241Z,20.61
2022-08-30T09:45:32.774Z,20.58
2022-08-30T09:47:44.863Z,20.47
2022-08-30T09:49:56.949Z,20.27
2022-08-30T09:52:10.529Z,20.38
2022-08-30T09:54:31.108Z,20.38
2022-08-30T09:56:46.679Z,20.23
2022-08-30T09:58:59.589Z,20.21
2022-08-30T10:01:19.385Z,20.27
2022-08-30T10:03:40.608Z,20.35
2022-08-30T10:04:37.421Z,20.42
2022-08-30T10:06:54.025Z,20.53
2022-08-30T10:09:12.097Z,20.68
2022-08-30T10:11:26.732Z,20.83
2022-08-30T10:13:42.331Z,20.61
2022-08-30T10:16:00.338Z,20.74
2022-08-30T10:18:17.002Z,20.91
2022-08-30T10:20:32.542Z,20.90
2022-08-30T10:22:50.637Z,20.81
2022-08-30T10:25:06.196Z,20.51
2022-08-30T10:27:25.257Z,20.58
2022-08-30T10:29:43.314Z,20.56
2022-08-30T10:31:58.928Z,20.51
2022-08-30T10:34:17.028Z,20.50
2022-08-30T10:36:39.005Z,20.61
2022-08-30T10:38:53.194Z,20.68
2022-08-30T10:41:09.744Z,20.81
2022-08-30T10:43:22.680Z,20.93
2022-08-30T10:45:33.945Z,21.11
2022-08-30T10:47:45.983Z,21.04
2022-08-30T10:50:00.174Z,21.29
2022-08-30T10:52:11.676Z,21.44
2022-08-30T10:54:23.764Z,21.39
2022-08-30T10:56:35.877Z,21.53
2022-08-30T10:58:47.912Z,21.51
2022-08-30T11:01:00.014Z,21.51
2022-08-30T11:03:16.720Z,21.64
2022-08-30T11:05:28.679Z,21.85
2022-08-30T11:07:42.273Z,21.92
2022-08-30T11:09:54.324Z,22.02
2022-08-30T11:12:07.896Z,21.98
2022-08-30T11:14:25.409Z,21.76
2022-08-30T11:16:33.568Z,21.71
2022-08-30T11:18:50.931Z,21.78
2022-08-30T11:20:59.286Z,21.91
2022-08-30T11:23:11.330Z,21.88
2022-08-30T11:25:23.401Z,21.95
2022-08-30T11:27:35.487Z,21.98
2022-08-30T11:29:47.661Z,22.06
2022-08-30T11:31:59.682Z,22.09
2022-08-30T11:34:13.255Z,22.07
2022-08-30T11:36:25.372Z,22.14
2022-08-30T11:38:37.455Z,22.19
2022-08-30T11:40:49.554Z,22.14
2022-08-30T11:43:02.950Z,22.14
2022-08-30T11:45:15.202Z,22.20
2022-08-30T11:47:27.274Z,22.28
2022-08-30T11:49:40.880Z,22.14
2022-08-30T11:52:08.370Z,21.98
2022-08-30T11:52:53.939Z,22.06
2022-08-30T11:55:06.989Z,21.90
2022-08-30T11:57:18.901Z,21.88
2022-08-30T11:59:30.687Z,21.75
2022-08-30T12:01:51.144Z,21.79
2022-08-30T12:02:43.894Z,21.75
2022-08-30T12:04:56.351Z,21.78
2022-08-30T12:07:08.461Z,21.88
2022-08-30T12:09:20.507Z,21.76
2022-08-30T12:11:32.590Z,21.67
2022-08-30T12:13:44.685Z,21.60
2022-08-30T12:15:56.742Z,21.59
2022-08-30T12:18:15.395Z,21.79
2022-08-30T12:20:20.924Z,21.99
2022-08-30T12:22:33.007Z,22.09
2022-08-30T12:24:45.120Z,22.09
2022-08-30T12:26:57.180Z,22.06
2022-08-30T12:29:09.262Z,22.02
2022-08-30T12:31:21.413Z,22.09
2022-08-30T12:33:39.507Z,21.99
2022-08-30T12:35:45.554Z,21.98
2022-08-30T12:37:57.721Z,22.12
2022-08-30T12:40:11.229Z,22.22
2022-08-30T12:42:23.297Z,22.31
2022-08-30T12:44:35.360Z,22.39
2022-08-30T12:46:47.498Z,22.50
2022-08-30T12:48:59.507Z,22.65
2022-08-30T12:51:11.593Z,22.78
2022-08-30T12:53:23.697Z,22.94
2022-08-30T12:55:35.769Z,23.01
2022-08-30T12:57:47.874Z,22.84
2022-08-30T13:00:02.161Z,22.87
2022-08-30T13:02:20.261Z,22.96
2022-08-30T13:04:25.077Z,23.11
2022-08-30T13:06:37.146Z,23.20
2022-08-30T13:08:49.277Z,23.29
2022-08-30T13:11:07.424Z,23.40
2022-08-30T13:13:13.400Z,23.42
2022-08-30T13:15:25.478Z,23.43
2022-08-30T13:17:37.560Z,23.24
2022-08-30T13:19:49.663Z,23.17
2022-08-30T13:22:01.720Z,23.07
2022-08-30T13:24:13.829Z,23.15
2022-08-30T13:26:25.909Z,23.15
2022-08-30T13:28:38.003Z,23.23
2022-08-30T13:30:50.103Z,23.19
2022-08-30T13:33:02.318Z,23.17
2022-08-30T13:35:14.247Z,23.14
2022-08-30T13:39:38.400Z,23.04
2022-08-30T13:41:50.501Z,23.17
2022-08-30T13:44:11.333Z,23.17
2022-08-30T13:46:14.667Z,23.26
2022-08-30T13:48:26.720Z,23.39
2022-08-30T13:50:38.827Z,23.24
2022-08-30T13:52:50.951Z,23.34
2022-08-30T13:55:03.010Z,23.53
2022-08-30T13:57:15.129Z,23.60
2022-08-30T13:59:27.167Z,23.50
2022-08-30T14:02:45.381Z,23.01
2022-08-30T14:04:52.336Z,22.87
2022-08-30T14:07:20.993Z,22.92
2022-08-30T14:08:05.952Z,22.92
2022-08-30T14:10:32.430Z,22.92
2022-08-30T14:14:43.203Z,22.87
2022-08-30T14:16:53.893Z,22.90
2022-08-30T14:19:05.918Z,22.87
2022-08-30T14:21:17.936Z,22.72
2022-08-30T14:23:30.023Z,22.69
2022-08-30T14:25:42.117Z,22.53
2022-08-30T14:27:54.692Z,22.43
2022-08-30T14:30:06.259Z,22.32
2022-08-30T14:32:18.839Z,22.35
2022-08-30T14:34:30.403Z,22.28
2022-08-30T14:36:42.793Z,22.35
2022-08-30T14:38:54.870Z,22.29
2022-08-30T14:41:06.947Z,22.16
2022-08-30T14:43:19.013Z,22.07
2022-08-30T14:45:31.115Z,21.92
2022-08-30T14:47:43.200Z,21.82
2022-08-30T14:49:55.263Z,21.76
2022-08-30T14:52:08.342Z,21.75
2022-08-30T14:54:20.451Z,21.81
2022-08-30T14:56:33.994Z,21.76
2022-08-30T14:58:46.116Z,21.76
2022-08-30T15:00:58.172Z,21.71
2022-08-30T15:03:11.246Z,21.64
2022-08-30T15:05:23.313Z,21.66
2022-08-30T15:07:35.396Z,21.71
2022-08-30T15:09:47.497Z,21.75
2022-08-30T15:12:01.053Z,21.78
2022-08-30T15:14:16.123Z,21.88
2022-08-30T15:16:26.292Z,21.85
2022-08-30T15:18:38.327Z,21.75
2022-08-30T15:20:51.956Z,21.71
2022-08-30T15:23:03.986Z,21.76
2022-08-30T15:25:17.575Z,21.61
2022-08-30T15:27:31.175Z,21.61
2022-08-30T15:29:43.264Z,21.57
2022-08-30T15:31:56.383Z,21.60
2022-08-30T15:34:08.408Z,21.79
2022-08-30T15:36:20.492Z,21.98
2022-08-30T15:38:32.582Z,21.99
2022-08-30T15:40:44.708Z,22.09
2022-08-30T15:42:58.291Z,22.20
2022-08-30T15:45:10.362Z,22.19
2022-08-30T15:47:22.439Z,21.99
2022-08-30T15:49:34.536Z,22.04
2022-08-30T15:51:46.623Z,22.09
2022-08-30T15:53:59.724Z,22.28
2022-08-30T15:56:12.345Z,22.94
2022-08-30T15:58:23.843Z,23.55
2022-08-30T16:00:35.973Z,23.53
2022-08-30T16:02:48.012Z,23.01
2022-08-30T16:05:00.128Z,22.69
2022-08-30T16:07:13.032Z,22.53
2022-08-30T16:09:24.269Z,22.29
2022-08-30T16:11:36.344Z,22.02
2022-08-30T16:13:50.489Z,21.92
2022-08-30T16:16:01.412Z,21.72
2022-08-30T16:18:12.615Z,21.67
2022-08-30T16:20:24.698Z,21.56
2022-08-30T16:22:36.779Z,21.51
2022-08-30T16:24:48.861Z,21.50
2022-08-30T16:27:00.954Z,21.30
2022-08-30T16:29:13.021Z,21.16
2022-08-30T16:31:26.034Z,21.05
2022-08-30T16:33:39.980Z,21.01
2022-08-30T16:35:49.278Z,20.90
2022-08-30T16:38:01.405Z,20.80
2022-08-30T16:40:13.475Z,20.77
2022-08-30T16:42:25.533Z,20.74
2022-08-30T16:44:37.611Z,20.65
2022-08-30T16:46:53.199Z,20.59
2022-08-30T16:49:01.814Z,20.47
2022-08-30T16:51:13.870Z,20.39
2022-08-30T16:53:25.951Z,20.38
2022-08-30T16:55:38.020Z,20.27
2022-08-30T16:57:50.149Z,20.23
2022-08-30T17:00:02.241Z,20.18
2022-08-30T17:02:14.369Z,20.15
2022-08-30T17:04:26.375Z,20.09
2022-08-30T17:06:39.472Z,20.00
2022-08-30T17:08:56.114Z,19.91
2022-08-30T17:11:03.634Z,19.83
2022-08-30T17:13:16.202Z,19.76
2022-08-30T17:15:27.756Z,19.70
2022-08-30T17:17:43.110Z,19.60
2022-08-30T17:19:51.977Z,19.53
2022-08-30T17:22:04.076Z,19.42
2022-08-30T17:24:16.140Z,19.36
2022-08-30T17:26:28.209Z,19.33
2022-08-30T17:28:40.296Z,19.24
2022-08-30T17:30:52.428Z,19.15
2022-08-30T17:33:04.468Z,19.05
2022-08-30T17:35:16.528Z,19.01
2022-08-30T17:37:29.554Z,18.95
2022-08-30T17:39:42.210Z,18.84
2022-08-30T17:41:54.273Z,18.79
2022-08-30T17:44:06.387Z,18.68
2022-08-30T17:47:36.607Z,18.61
2022-08-30T17:49:49.647Z,18.52
2022-08-30T17:52:01.697Z,18.40
2022-08-30T17:54:13.783Z,18.34
2022-08-30T17:56:29.158Z,18.27
2022-08-30T17:57:26.816Z,18.22
2022-08-30T17:59:37.925Z,18.21
2022-08-30T18:01:50.039Z,18.15
2022-08-30T18:04:06.371Z,18.10
2022-08-30T18:06:15.680Z,18.06
2022-08-30T18:08:27.748Z,17.95
2022-08-30T18:10:39.827Z,17.88
2022-08-30T18:12:51.896Z,17.81
2022-08-30T18:15:12.516Z,17.78
2022-08-30T18:17:16.091Z,17.69
2022-08-30T18:19:28.161Z,17.64
2022-08-30T18:21:40.239Z,17.57
2022-08-30T18:23:52.319Z,17.50
2022-08-30T18:26:04.399Z,17.44
2022-08-30T18:28:16.621Z,17.33
2022-08-30T18:30:33.964Z,17.25
2022-08-30T18:32:40.645Z,17.17
2022-08-30T18:34:54.700Z,17.08
2022-08-30T18:37:05.803Z,16.98
2022-08-30T18:39:17.899Z,16.95
2022-08-30T18:41:29.983Z,16.86
2022-08-30T18:43:42.052Z,16.77
2022-08-30T18:45:54.145Z,16.68
2022-08-30T18:48:06.204Z,16.60
2022-08-30T18:50:29.260Z,16.50
2022-08-30T18:52:41.407Z,16.42
2022-08-30T18:54:53.439Z,16.37
2022-08-30T18:57:05.491Z,16.30
2022-08-30T18:59:17.584Z,16.22
2022-08-30T19:01:29.699Z,16.16
2022-08-30T19:03:41.864Z,16.09
2022-08-30T19:05:53.823Z,16.04
2022-08-30T19:08:05.894Z,15.99
2022-08-30T19:10:18.003Z,15.94
2022-08-30T19:12:31.073Z,15.88
2022-08-30T19:14:43.135Z,15.82
2022-08-30T19:16:55.230Z,15.78
2022-08-30T19:19:07.292Z,15.70
2022-08-30T19:21:19.364Z,15.66
2022-08-30T19:23:34.339Z,15.60
2022-08-30T19:25:43.539Z,15.56
2022-08-30T19:27:55.621Z,15.49
2022-08-30T19:30:07.691Z,15.45
2022-08-30T19:32:19.767Z,15.45
2022-08-30T19:34:31.902Z,15.39
2022-08-30T19:36:44.967Z,15.31
2022-08-30T19:38:57.004Z,15.28
2022-08-30T19:41:10.086Z,15.24
2022-08-30T19:43:22.167Z,15.19
2022-08-30T19:45:34.278Z,15.13
2022-08-30T19:47:46.668Z,15.08
2022-08-30T19:49:58.411Z,15.05
2022-08-30T19:52:10.478Z,15.05
2022-08-30T19:54:22.554Z,15.01
2022-08-30T19:56:34.668Z,15.02
2022-08-30T19:58:46.723Z,14.98
2022-08-30T20:01:12.132Z,14.93
2022-08-30T20:03:10.990Z,14.87
2022-08-30T20:05:22.973Z,14.81
2022-08-30T20:07:35.097Z,14.80
2022-08-30T20:09:47.184Z,14.78
2022-08-30T20:11:59.272Z,14.75
2022-08-30T20:14:13.572Z,14.72
2022-08-30T20:17:24.353Z,14.69
2022-08-30T20:19:36.027Z,14.69
2022-08-30T20:21:50.059Z,14.69
2022-08-30T20:24:01.143Z,14.69
2022-08-30T20:26:13.202Z,14.74
2022-08-30T20:28:25.291Z,14.74
2022-08-30T20:30:37.510Z,14.80
2022-08-30T20:32:49.448Z,14.78
2022-08-30T20:35:01.548Z,14.81
2022-08-30T20:37:13.612Z,14.81
2022-08-30T20:39:25.707Z,14.84
2022-08-30T20:41:37.797Z,14.84
2022-08-30T20:43:49.885Z,14.88
2022-08-30T20:46:02.035Z,14.94
2022-08-30T20:48:14.031Z,15.02
2022-08-30T20:50:26.106Z,15.03
2022-08-30T20:52:38.176Z,15.08
2022-08-30T20:54:50.265Z,15.15
2022-08-30T20:57:02.343Z,15.17
2022-08-30T20:59:14.410Z,15.23
2022-08-30T21:01:26.515Z,15.24
2022-08-30T21:03:38.610Z,15.30
2022-08-30T21:05:50.657Z,15.31
2022-08-30T21:08:02.752Z,15.33
2022-08-30T21:10:14.809Z,15.36
2022-08-30T21:12:29.222Z,15.39
2022-08-30T21:14:39.961Z,15.42
2022-08-30T21:16:52.070Z,15.42
2022-08-30T21:19:04.138Z,15.42
2022-08-30T21:21:16.196Z,15.41
2022-08-30T21:23:28.276Z,15.41
2022-08-30T21:25:40.347Z,15.39
2022-08-30T21:27:52.463Z,15.36
2022-08-30T21:30:04.533Z,15.38
2022-08-30T21:32:16.596Z,15.35
2022-08-30T21:34:28.674Z,15.36
2022-08-30T21:36:40.745Z,15.36
2022-08-30T21:38:52.834Z,15.35
2022-08-30T21:41:04.935Z,15.33
2022-08-30T21:43:17.293Z,15.31
2022-08-30T21:45:29.381Z,15.28
2022-08-30T21:47:41.465Z,15.24
2022-08-30T21:49:53.533Z,15.17
2022-08-30T21:52:05.634Z,15.12
2022-08-30T21:54:17.695Z,15.06
2022-08-30T21:56:30.298Z,15.02
2022-08-30T21:58:41.880Z,14.99
2022-08-30T22:00:53.971Z,14.93
2022-08-30T22:03:06.160Z,14.90
2022-08-30T22:05:18.109Z,14.84
2022-08-30T22:07:30.207Z,14.80
2022-08-30T22:09:42.253Z,14.72
2022-08-30T22:11:54.336Z,14.69
2022-08-30T22:14:06.453Z,14.65
2022-08-30T22:16:18.554Z,14.67
2022-08-30T22:18:30.645Z,14.65
2022-08-30T22:20:42.676Z,14.60
2022-08-30T22:22:54.745Z,14.60
2022-08-30T22:25:06.862Z,14.56
2022-08-30T22:27:18.904Z,14.50
2022-08-30T22:29:31.021Z,14.47
2022-08-30T22:31:43.109Z,14.43
2022-08-30T22:33:55.997Z,14.39
2022-08-30T22:36:07.244Z,14.34
2022-08-30T22:38:19.316Z,14.31
2022-08-30T22:40:31.456Z,14.29
2022-08-30T22:42:48.277Z,14.25
2022-08-30T22:44:55.550Z,14.21
2022-08-30T22:47:07.648Z,14.16
2022-08-30T22:49:19.710Z,14.14
2022-08-30T22:51:31.795Z,14.10
2022-08-30T22:53:44.835Z,14.04
2022-08-30T22:55:55.958Z,13.99
2022-08-30T22:58:08.057Z,13.92
2022-08-30T23:00:20.384Z,13.87
2022-08-30T23:02:32.228Z,13.81
2022-08-30T23:04:44.281Z,13.76
2022-08-30T23:06:56.360Z,13.70
2022-08-30T23:09:08.465Z,13.62
2022-08-30T23:11:20.510Z,13.58
2022-08-30T23:13:32.619Z,13.49
2022-08-30T23:15:44.696Z,13.44
2022-08-30T23:17:56.820Z,13.41
2022-08-30T23:20:08.899Z,13.37
2022-08-30T23:22:20.947Z,13.32
2022-08-30T23:24:33.037Z,13.25
2022-08-30T23:26:45.106Z,13.22
2022-08-30T23:28:57.185Z,13.17
2022-08-30T23:31:09.285Z,13.11
2022-08-30T23:33:21.346Z,13.07
2022-08-30T23:35:33.415Z,13.02
2022-08-30T23:37:45.507Z,13.02
2022-08-30T23:39:57.579Z,12.97
2022-08-30T23:42:09.686Z,12.93
2022-08-30T23:44:21.742Z,12.88
2022-08-30T23:46:34.664Z,12.82
2022-08-30T23:48:50.069Z,12.81
2022-08-30T23:50:57.976Z,12.77
2022-08-30T23:53:10.597Z,12.75
2022-08-30T23:55:22.155Z,12.71
2022-08-30T23:57:34.232Z,12.69
2022-08-30T23:59:46.604Z,12.66
